Terminal Aerodrome Forecast
Issued by NWS Pueblo, CO

Home | Current Version | Previous Version | Text Only | Print | Product List | Glossary On
Versions: 1 2 3 4 5 6 7 8 9 10 11 12 13 14 15 16 17 18 19 20 21 22 23 24 25
000
FTUS45 KPUB 231132
TAFCOS
TAF
KCOS 231132Z 2312/2412 35013KT P6SM FEW090 SCT200
     FM231600 17010KT P6SM FEW090 SCT200
     FM231800 27015G27KT P6SM FEW090 SCT200
     FM232000 31025G35KT P6SM SCT090 BKN150
     FM232300 35025G35KT P6SM SCT090 BKN150
     FM240300 35015G25KT P6SM VCSH SCT030 BKN050
     FM240800 35013KT P6SM BKN100=

USA.gov is the U.S. government's official web portal to all federal, state and local government web resources and services.